Time;durP1;ratioP1;P1;durP2;ratioP2;P2;SDS_P1;SDS_P2;PMS_P1;PMS_P2;Temp;Humidity;BMP_temperature;BMP_pressure;BME280_temperature;BME280_humidity;BME280_pressure;Samples;Min_cycle;Max_cycle;Signal;HPM_P1;HPM_P2
2022/08/03 00:00:57;;;;;;;9.60;6.93;;;;;;;19.64;100.00;99670.41;1643941;87;21464;-58
2022/08/03 00:03:24;;;;;;;7.00;6.07;;;;;;;19.63;100.00;99674.11;1644033;87;21515;-58
2022/08/03 00:05:52;;;;;;;7.33;6.53;;;;;;;19.65;100.00;99672.52;1643008;86;21201;-63
2022/08/03 00:08:19;;;;;;;7.50;6.30;;;;;;;19.60;100.00;99673.27;1643619;87;21069;-58
2022/08/03 00:10:47;;;;;;;8.40;7.07;;;;;;;19.53;100.00;99674.55;1643880;87;21041;-59
2022/08/03 00:13:15;;;;;;;9.17;6.40;;;;;;;19.51;100.00;99674.81;1643751;87;20998;-58
2022/08/03 00:15:42;;;;;;;7.53;6.47;;;;;;;19.51;100.00;99682.74;1643141;87;21593;-59
2022/08/03 00:18:10;;;;;;;7.50;6.43;;;;;;;19.53;100.00;99680.63;1642829;87;22396;-60
2022/08/03 00:20:37;;;;;;;7.10;6.30;;;;;;;19.50;100.00;99677.70;1643529;87;22109;-58
2022/08/03 00:23:05;;;;;;;9.80;7.10;;;;;;;19.48;100.00;99675.31;1643351;87;21022;-59
2022/08/03 00:25:34;;;;;;;6.70;5.80;;;;;;;19.46;100.00;99677.41;1643667;87;21101;-58
2022/08/03 00:28:03;;;;;;;9.37;5.90;;;;;;;19.44;100.00;99686.13;1643082;87;21129;-68
2022/08/03 00:30:31;;;;;;;8.27;6.37;;;;;;;19.43;100.00;99691.13;1643563;87;21510;-58
2022/08/03 00:32:58;;;;;;;7.87;6.27;;;;;;;19.40;100.00;99695.09;1643928;87;21037;-58
2022/08/03 00:35:26;;;;;;;7.97;5.93;;;;;;;19.38;100.00;99693.75;1643976;87;21499;-63
2022/08/03 00:37:53;;;;;;;7.73;6.80;;;;;;;19.38;100.00;99696.39;1644070;87;21160;-58
2022/08/03 00:40:20;;;;;;;7.93;6.77;;;;;;;19.36;100.00;99706.44;1642810;87;21010;-59
2022/08/03 00:42:53;;;;;;;9.87;6.50;;;;;;;19.35;100.00;99711.43;1643582;87;21267;-58
2022/08/03 00:45:21;;;;;;;13.73;6.87;;;;;;;19.34;100.00;99716.45;1643811;87;21499;-62
2022/08/03 00:47:48;;;;;;;8.33;6.90;;;;;;;19.35;100.00;99718.83;1643668;87;21662;-70
2022/08/03 00:50:16;;;;;;;7.17;6.37;;;;;;;19.39;100.00;99713.30;1643098;85;20954;-59
2022/08/03 00:52:43;;;;;;;8.90;6.53;;;;;;;19.41;100.00;99710.42;1644211;87;22063;-58
2022/08/03 00:55:11;;;;;;;8.23;6.73;;;;;;;19.40;100.00;99710.16;1644371;87;22300;-57
2022/08/03 00:57:38;;;;;;;7.07;6.30;;;;;;;19.40;100.00;99714.13;1644097;87;21012;-58
2022/08/03 01:00:07;;;;;;;7.53;5.70;;;;;;;19.39;100.00;99717.80;1643380;87;20990;-61
2022/08/03 01:02:34;;;;;;;8.13;6.23;;;;;;;19.40;100.00;99719.41;1644197;87;21287;-60
2022/08/03 01:05:03;;;;;;;7.67;6.17;;;;;;;19.37;100.00;99722.03;1654718;86;21721;-58
2022/08/03 01:07:52;;;;;;;7.63;6.17;;;;;;;19.32;100.00;99721.18;1666773;86;22668;-58
2022/08/03 01:10:58;;;;;;;8.57;6.43;;;;;;;19.34;100.00;99716.45;1666446;86;21062;-58
2022/08/03 01:13:47;;;;;;;8.77;6.43;;;;;;;19.35;100.00;99714.08;1665991;86;21066;-59
2022/08/03 01:16:34;;;;;;;7.10;6.40;;;;;;;19.30;100.00;99708.77;1647269;86;21485;-60
2022/08/03 01:19:24;;;;;;;9.57;6.33;;;;;;;19.28;100.00;99708.20;1666101;86;21736;-60
2022/08/03 01:22:11;;;;;;;8.60;6.20;;;;;;;19.31;100.00;99710.34;1666670;86;21208;-59
2022/08/03 01:24:53;;;;;;;7.83;6.53;;;;;;;19.29;100.00;99708.50;1666560;86;21021;-59
2022/08/03 01:27:37;;;;;;;7.20;6.30;;;;;;;19.24;100.00;99705.27;1667102;86;21046;-59
2022/08/03 01:30:07;;;;;;;8.10;6.53;;;;;;;19.27;100.00;99702.66;1666306;86;21142;-59
2022/08/03 01:32:57;;;;;;;7.53;6.17;;;;;;;19.28;100.00;99708.20;1666492;86;21097;-59
2022/08/03 01:35:46;;;;;;;8.13;6.90;;;;;;;19.29;100.00;99709.30;1632433;86;21859;-60
2022/08/03 01:38:17;;;;;;;6.50;5.87;;;;;;;19.33;100.00;99704.30;1666143;86;21145;-60
2022/08/03 01:40:44;;;;;;;6.75;6.05;;;;;;;19.37;100.00;99700.89;1666076;86;21042;-61
2022/08/03 01:43:15;;;;;;;8.23;6.63;;;;;;;19.40;100.00;99698.27;1665972;86;21112;-59
2022/08/03 01:45:42;;;;;;;10.35;7.12;;;;;;;19.39;100.00;99697.98;1666038;86;21078;-59
2022/08/03 01:48:10;;;;;;;7.83;6.90;;;;;;;19.40;100.00;99696.42;1666660;86;21328;-58
2022/08/03 01:50:37;;;;;;;8.23;6.63;;;;;;;19.42;100.00;99705.41;1666565;86;21134;-71
2022/08/03 01:53:04;;;;;;;7.00;6.30;;;;;;;19.45;100.00;99708.34;1665686;86;21031;-60
2022/08/03 01:55:32;;;;;;;8.87;6.53;;;;;;;19.44;100.00;99714.69;1665610;86;22511;-60
2022/08/03 01:57:59;;;;;;;8.77;6.47;;;;;;;19.44;100.00;99713.89;1666350;86;21492;-60
2022/08/03 02:00:26;;;;;;;7.07;6.33;;;;;;;19.46;100.00;99703.84;1666372;86;21172;-60
2022/08/03 02:02:54;;;;;;;8.30;6.67;;;;;;;19.46;100.00;99705.16;1666030;86;21011;-71
2022/08/03 02:05:21;;;;;;;7.03;5.87;;;;;;;19.45;100.00;99706.22;1665964;86;21465;-60
2022/08/03 02:07:48;;;;;;;9.83;7.43;;;;;;;19.37;100.00;99705.38;1665898;86;21129;-59
2022/08/03 02:10:15;;;;;;;7.97;5.80;;;;;;;19.35;100.00;99702.97;1666733;86;21457;-61
2022/08/03 02:12:45;;;;;;;6.90;6.07;;;;;;;19.37;100.00;99697.45;1666198;86;21234;-71
2022/08/03 02:15:12;;;;;;;7.23;6.00;;;;;;;19.31;100.00;99698.45;1665321;86;20962;-64
2022/08/03 02:17:40;;;;;;;8.33;6.40;;;;;;;19.28;100.00;99705.56;1646978;86;21144;-58
2022/08/03 02:20:10;;;;;;;7.47;6.50;;;;;;;19.28;100.00;99706.88;1666401;86;21059;-59
2022/08/03 02:22:41;;;;;;;8.45;6.30;;;;;;;19.19;100.00;99703.39;1666813;86;21070;-59
2022/08/03 02:25:09;;;;;;;9.85;7.60;;;;;;;19.24;100.00;99703.16;1666065;86;27606;-62
2022/08/03 02:27:50;;;;;;;8.37;5.83;;;;;;;19.29;100.00;99696.61;1667088;86;21377;-59
2022/08/03 02:30:17;;;;;;;7.40;6.50;;;;;;;19.31;100.00;99696.61;1667221;86;21497;-59
2022/08/03 02:32:53;;;;;;;8.67;7.30;;;;;;;19.32;100.00;99684.19;1647119;86;21039;-71
2022/08/03 02:35:20;;;;;;;11.27;8.00;;;;;;;19.36;100.00;99682.13;1666563;86;21450;-59
2022/08/03 02:37:51;;;;;;;11.03;7.70;;;;;;;19.39;100.00;99682.12;1669695;85;21170;-60
2022/08/03 02:40:19;;;;;;;8.43;6.47;;;;;;;19.37;100.00;99678.42;1666526;86;21007;-60
2022/08/03 02:42:47;;;;;;;9.43;7.00;;;;;;;19.35;100.00;99680.51;1665885;86;21696;-70
2022/08/03 02:45:16;;;;;;;8.83;6.60;;;;;;;19.40;100.00;99675.80;1666252;86;22474;-59
2022/08/03 02:47:44;;;;;;;9.57;6.97;;;;;;;19.40;100.00;99679.77;1666674;86;21058;-59
2022/08/03 02:50:12;;;;;;;8.33;6.67;;;;;;;19.41;100.00;99681.35;1666874;86;22495;-59
2022/08/03 02:52:39;;;;;;;8.50;6.50;;;;;;;19.40;100.00;99680.56;1666275;86;20947;-70
2022/08/03 02:55:08;;;;;;;10.90;6.77;;;;;;;19.42;100.00;99685.58;1666660;86;21576;-59
2022/08/03 02:57:35;;;;;;;9.77;6.87;;;;;;;19.41;100.00;99684.00;1666571;86;21135;-60
2022/08/03 03:00:03;;;;;;;8.90;6.73;;;;;;;19.45;100.00;99685.87;1666242;86;21079;-59
2022/08/03 03:02:31;;;;;;;7.30;6.43;;;;;;;19.54;100.00;99683.53;1666315;86;21200;-59
2022/08/03 03:04:59;;;;;;;8.23;7.33;;;;;;;19.65;100.00;99689.17;1664535;86;21502;-59
2022/08/03 03:07:27;;;;;;;8.17;6.63;;;;;;;19.76;100.00;99687.91;1660152;86;21109;-58
2022/08/03 03:09:55;;;;;;;9.27;7.43;;;;;;;19.84;100.00;99678.16;1660402;86;20955;-59
2022/08/03 03:12:22;;;;;;;7.70;6.93;;;;;;;19.94;100.00;99682.19;1659464;84;21073;-67
2022/08/03 03:14:50;;;;;;;10.57;7.77;;;;;;;20.45;100.00;99690.27;1659717;86;21856;-68
2022/08/03 03:17:17;;;;;;;8.03;6.93;;;;;;;21.18;100.00;99691.41;1659684;86;21044;-61
2022/08/03 03:19:44;;;;;;;8.50;7.60;;;;;;;21.91;100.00;99696.30;1660015;86;21014;-59
2022/08/03 03:22:13;;;;;;;9.00;8.10;;;;;;;22.27;100.00;99689.52;1659870;86;21071;-58
2022/08/03 03:24:41;;;;;;;10.20;7.83;;;;;;;22.41;100.00;99683.08;1659627;86;21184;-67
2022/08/03 03:27:08;;;;;;;11.07;7.73;;;;;;;22.48;100.00;99680.37;1659762;86;21762;-59
2022/08/03 03:29:36;;;;;;;8.70;7.67;;;;;;;22.54;100.00;99674.48;1659935;86;21026;-60
2022/08/03 03:32:04;;;;;;;8.53;7.63;;;;;;;22.54;100.00;99677.13;1660487;86;21074;-59
2022/08/03 03:34:31;;;;;;;10.57;7.57;;;;;;;22.47;100.00;99676.67;1659928;86;21004;-69
2022/08/03 03:37:00;;;;;;;8.77;7.70;;;;;;;22.35;100.00;99673.03;1660523;86;21540;-58
2022/08/03 03:39:28;;;;;;;8.63;7.73;;;;;;;22.21;100.00;99679.47;1660777;86;21119;-60
2022/08/03 03:41:56;;;;;;;8.90;8.00;;;;;;;22.11;100.00;99675.50;1660664;86;21065;-59
2022/08/03 03:44:28;;;;;;;8.20;7.37;;;;;;;22.03;100.00;99681.39;1660547;86;21007;-68
2022/08/03 03:46:57;;;;;;;8.27;7.47;;;;;;;22.06;100.00;99684.30;1660753;86;21141;-60
2022/08/03 03:49:24;;;;;;;9.93;7.23;;;;;;;21.95;100.00;99688.06;1660449;86;21019;-59
2022/08/03 03:51:53;;;;;;;12.70;7.40;;;;;;;21.83;100.00;99695.54;1660456;86;21162;-61
2022/08/03 03:54:21;;;;;;;10.43;7.77;;;;;;;21.74;100.00;99694.49;1659751;86;20952;-70
2022/08/03 03:56:48;;;;;;;8.33;7.47;;;;;;;21.54;100.00;99704.09;1660399;84;21426;-59
2022/08/03 03:59:15;;;;;;;10.07;7.87;;;;;;;21.46;100.00;99704.65;1660387;86;21492;-58
2022/08/03 04:01:41;;;;;;;10.47;8.07;;;;;;;21.43;100.00;99709.69;1660955;86;21541;-59
2022/08/03 04:12:26;;;;;;;9.50;8.57;;;;;;;22.01;100.00;99714.84;1644127;87;21343;-59
2022/08/03 04:14:53;;;;;;;9.73;8.73;;;;;;;22.75;100.00;99720.30;1644144;87;21021;-59
2022/08/03 04:17:20;;;;;;;9.80;7.87;;;;;;;23.46;100.00;99715.75;1643870;87;21271;-60
2022/08/03 04:19:50;;;;;;;10.10;9.00;;;;;;;24.02;100.00;99717.83;1642944;87;20979;-67
2022/08/03 04:22:19;;;;;;;10.43;9.13;;;;;;;24.33;100.00;99713.44;1644272;87;21481;-59
2022/08/03 04:24:59;;;;;;;9.90;8.88;;;;;;;24.47;100.00;99718.34;1643910;87;21003;-59
2022/08/03 04:27:30;;;;;;;10.43;8.83;;;;;;;24.73;100.00;99716.06;1642851;87;21080;-59
2022/08/03 04:29:57;;;;;;;9.90;8.83;;;;;;;25.16;100.00;99716.50;1643670;87;21228;-59
2022/08/03 04:32:27;;;;;;;10.58;9.25;;;;;;;25.59;100.00;99717.05;1643663;87;21628;-57
2022/08/03 04:34:54;;;;;;;11.45;10.25;;;;;;;25.83;100.00;99714.75;1643295;87;20965;-67
2022/08/03 04:37:44;;;;;;;10.90;9.90;;;;;;;26.20;100.00;99707.05;1642883;87;21582;-58
2022/08/03 04:40:21;;;;;;;11.60;10.55;;;;;;;26.40;100.00;99706.61;1644326;87;21072;-56
2022/08/03 04:42:48;;;;;;;10.75;9.83;;;;;;;26.45;100.00;99703.03;1643772;87;21901;-59
2022/08/03 04:45:15;;;;;;;11.50;10.13;;;;;;;26.20;100.00;99698.48;1643226;87;20969;-69
2022/08/03 04:47:43;;;;;;;11.18;10.13;;;;;;;26.03;100.00;99704.22;1643489;87;21092;-60
2022/08/03 04:50:10;;;;;;;12.37;10.03;;;;;;;26.23;100.00;99699.77;1643442;87;21008;-59
2022/08/03 04:52:37;;;;;;;11.25;10.15;;;;;;;26.83;100.00;99696.03;1643275;87;21014;-60
2022/08/03 04:55:06;;;;;;;11.53;10.43;;;;;;;27.06;100.00;99699.47;1617933;87;21327;-71
2022/08/03 04:57:33;;;;;;;11.60;10.50;;;;;;;26.97;100.00;99703.96;1643198;87;21042;-61
2022/08/03 05:00:00;;;;;;;11.18;10.15;;;;;;;26.97;100.00;99703.96;1643571;87;21333;-60
2022/08/03 05:02:27;;;;;;;12.00;9.30;;;;;;;26.86;100.00;99702.89;1643404;87;20966;-62
2022/08/03 05:04:56;;;;;;;11.80;10.08;;;;;;;26.80;100.00;99707.33;1643332;87;21066;-60
2022/08/03 05:07:23;;;;;;;10.72;9.73;;;;;;;26.79;100.00;99704.42;1662773;86;21177;-70
2022/08/03 05:09:51;;;;;;;10.53;9.60;;;;;;;27.05;100.00;99706.71;1666094;86;21153;-61
2022/08/03 05:12:19;;;;;;;11.28;10.28;;;;;;;27.45;100.00;99705.98;1666463;86;20995;-60
2022/08/03 05:14:46;;;;;;;9.93;9.00;;;;;;;27.84;100.00;99696.63;1666085;86;21035;-68
2022/08/03 05:17:14;;;;;;;9.73;8.88;;;;;;;28.54;100.00;99695.38;1666098;86;21038;-69
2022/08/03 05:19:41;;;;;;;10.18;9.20;;;;;;;29.48;100.00;99696.27;1666215;86;21246;-61
2022/08/03 05:22:09;;;;;;;9.30;8.40;;;;;;;30.34;100.00;99684.00;1666454;86;21532;-62
2022/08/03 05:24:36;;;;;;;9.88;8.85;;;;;;;30.87;100.00;99684.56;1666192;86;21077;-67
2022/08/03 05:27:04;;;;;;;9.75;8.70;;;;;;;31.37;100.00;99682.78;1666309;86;21097;-61
2022/08/03 05:29:32;;;;;;;9.68;8.78;;;;;;;31.73;100.00;99677.92;1666479;86;21501;-70
2022/08/03 05:32:00;;;;;;;11.88;9.63;;;;;;;32.33;100.00;99680.85;1666418;86;22367;-63
2022/08/03 05:34:27;;;;;;;11.20;10.08;;;;;;;32.99;100.00;99676.28;1669268;85;21327;-69
2022/08/03 05:36:56;;;;;;;13.62;11.68;;;;;;;33.65;100.00;99677.51;1665646;86;21081;-63
2022/08/03 05:39:23;;;;;;;11.15;10.10;;;;;;;34.27;100.00;99677.67;1665859;86;21352;-63
2022/08/03 05:41:50;;;;;;;10.70;9.60;;;;;;;35.02;100.00;99682.58;1665809;86;20867;-65
2022/08/03 05:44:17;;;;;;;9.20;8.40;;;;;;;35.83;100.00;99686.91;1666611;86;21273;-61
2022/08/03 05:46:45;;;;;;;9.83;8.83;;;;;;;36.56;86.19;99682.59;1666121;86;21002;-70
2022/08/03 05:49:12;;;;;;;11.08;10.00;;;;;;;37.07;76.23;99686.80;1665887;86;21823;-61
2022/08/03 05:51:39;;;;;;;11.80;10.70;;;;;;;37.52;71.05;99685.41;1666486;86;21071;-62
2022/08/03 05:54:08;;;;;;;9.68;8.88;;;;;;;37.67;63.66;99684.33;1666253;86;21019;-60
2022/08/03 05:56:35;;;;;;;11.17;10.03;;;;;;;37.72;61.58;99688.04;1666592;86;21459;-61
2022/08/03 05:59:03;;;;;;;10.95;9.95;;;;;;;37.47;61.34;99690.04;1666350;86;21530;-59
2022/08/03 06:01:32;;;;;;;11.85;10.75;;;;;;;37.29;62.88;99683.67;1666425;86;20967;-61
2022/08/03 06:03:59;;;;;;;10.53;9.63;;;;;;;37.20;64.26;99689.44;1666386;86;21169;-71
2022/08/03 06:06:26;;;;;;;9.23;8.33;;;;;;;37.33;64.43;99686.41;1664319;86;20959;-62
2022/08/03 06:08:53;;;;;;;11.45;10.45;;;;;;;37.67;61.59;99682.97;1659997;86;22243;-61
2022/08/03 06:11:21;;;;;;;11.57;10.10;;;;;;;38.02;59.09;99689.77;1660136;86;21387;-59
2022/08/03 06:13:48;;;;;;;11.33;10.32;;;;;;;38.32;59.28;99686.19;1659908;86;21100;-59
2022/08/03 06:16:15;;;;;;;12.10;11.00;;;;;;;38.61;55.43;99698.55;1660180;85;21085;-71
2022/08/03 06:18:42;;;;;;;10.32;9.43;;;;;;;38.89;52.62;99698.60;1659456;86;21030;-64
2022/08/03 06:21:10;;;;;;;11.85;10.75;;;;;;;39.25;52.17;99697.84;1660294;86;21574;-62
2022/08/03 06:23:37;;;;;;;11.57;10.58;;;;;;;39.53;49.97;99695.09;1660283;84;21082;-60
2022/08/03 06:26:05;;;;;;;11.48;10.28;;;;;;;39.76;47.71;99697.98;1660428;86;21469;-59
2022/08/03 06:28:32;;;;;;;12.23;11.12;;;;;;;39.75;47.14;99698.57;1659734;86;21067;-70
2022/08/03 06:31:00;;;;;;;12.98;11.68;;;;;;;39.82;48.25;99704.02;1659908;86;21488;-60
2022/08/03 06:33:27;;;;;;;12.60;11.55;;;;;;;40.09;46.09;99708.98;1660035;86;21133;-59
2022/08/03 06:35:54;;;;;;;12.98;11.65;;;;;;;39.97;45.60;99708.03;1660390;86;21074;-62
2022/08/03 06:38:22;;;;;;;12.03;10.82;;;;;;;39.74;46.43;99706.58;1660492;86;20947;-67
2022/08/03 06:40:48;;;;;;;12.18;10.93;;;;;;;39.47;47.00;99702.69;1659813;86;20967;-60
2022/08/03 06:43:16;;;;;;;12.37;11.12;;;;;;;39.40;47.12;99702.91;1660825;86;21058;-59
2022/08/03 06:45:43;;;;;;;12.95;10.90;;;;;;;39.37;46.54;99698.23;1660865;86;21268;-64
2022/08/03 06:48:11;;;;;;;11.30;10.13;;;;;;;39.39;48.10;99706.78;1660802;86;21016;-61
2022/08/03 06:50:43;;;;;;;12.45;11.10;;;;;;;39.52;47.07;99702.30;1660142;86;21518;-65
2022/08/03 06:53:10;;;;;;;12.88;11.57;;;;;;;39.64;47.13;99703.25;1660630;86;21086;-61
2022/08/03 06:55:38;;;;;;;13.13;12.03;;;;;;;39.76;47.76;99705.58;1660533;86;21077;-60
2022/08/03 06:58:05;;;;;;;13.03;11.83;;;;;;;39.97;46.95;99703.94;1660570;86;21169;-59
2022/08/03 07:00:33;;;;;;;13.90;12.60;;;;;;;40.35;45.82;99704.98;1660053;86;21022;-70
2022/08/03 07:03:00;;;;;;;13.98;12.20;;;;;;;40.56;43.93;99705.47;1660323;86;22094;-60
2022/08/03 07:05:29;;;;;;;14.98;13.58;;;;;;;40.63;42.42;99708.75;1660518;86;21051;-59
2022/08/03 07:07:58;;;;;;;12.82;11.60;;;;;;;39.92;43.44;99707.09;1664192;86;20998;-60
2022/08/03 07:10:26;;;;;;;13.58;12.33;;;;;;;39.25;44.28;99714.20;1666977;86;21300;-58
2022/08/03 07:12:53;;;;;;;14.20;12.90;;;;;;;38.18;46.92;99710.05;1666187;86;21528;-59
2022/08/03 07:15:22;;;;;;;14.28;13.00;;;;;;;37.25;49.95;99717.61;1667367;86;21101;-59
2022/08/03 07:17:49;;;;;;;13.62;12.35;;;;;;;36.73;55.38;99724.09;1667021;86;21077;-59
2022/08/03 07:20:18;;;;;;;13.18;11.88;;;;;;;36.50;58.51;99722.30;1667011;86;21041;-60
2022/08/03 07:22:45;;;;;;;14.00;12.63;;;;;;;36.37;58.84;99716.90;1665879;86;21175;-70
2022/08/03 07:25:12;;;;;;;13.03;11.78;;;;;;;36.51;60.02;99716.29;1666665;86;21069;-58
2022/08/03 07:27:45;;;;;;;13.43;12.13;;;;;;;36.56;61.37;99713.81;1666781;86;21559;-59
2022/08/03 07:30:13;;;;;;;11.68;10.58;;;;;;;36.61;63.67;99717.58;1666837;86;21097;-61
2022/08/03 07:32:40;;;;;;;12.25;11.15;;;;;;;37.08;63.58;99720.95;1666167;86;21007;-66
2022/08/03 07:35:09;;;;;;;13.38;12.13;;;;;;;37.57;59.62;99714.37;1666949;86;21556;-59
2022/08/03 07:37:36;;;;;;;12.40;11.40;;;;;;;37.73;55.18;99723.59;1667011;86;21002;-59
2022/08/03 07:40:06;;;;;;;13.50;12.30;;;;;;;37.83;55.61;99720.16;1666915;86;21048;-61
2022/08/03 07:42:33;;;;;;;12.95;11.85;;;;;;;37.78;53.28;99716.45;1665991;86;20995;-69
2022/08/03 07:45:00;;;;;;;13.10;11.78;;;;;;;37.52;53.76;99720.17;1666526;86;21089;-59
2022/08/03 07:47:29;;;;;;;12.93;11.83;;;;;;;37.06;57.61;99726.58;1666455;86;21164;-58
2022/08/03 07:49:57;;;;;;;13.90;12.47;;;;;;;36.87;57.34;99720.16;1666192;86;21027;-58
2022/08/03 07:55:10;;;;;;;13.22;11.90;;;;;;;37.00;58.91;99722.05;1667062;86;21039;-58
2022/08/03 07:57:37;;;;;;;14.13;12.73;;;;;;;37.45;57.29;99726.33;1666883;86;21062;-59
2022/08/03 08:00:05;;;;;;;12.70;11.65;;;;;;;37.44;53.05;99729.44;1667133;86;21175;-70
2022/08/03 08:02:41;;;;;;;14.15;12.75;;;;;;;37.06;54.88;99734.73;1666663;86;21495;-59
2022/08/03 08:05:09;;;;;;;13.83;12.63;;;;;;;36.63;55.83;99739.69;1666484;86;21065;-59
2022/08/03 08:07:37;;;;;;;13.75;12.53;;;;;;;36.16;60.02;99736.98;1664594;86;21122;-59
2022/08/03 08:10:06;;;;;;;15.65;14.15;;;;;;;35.83;62.76;99730.30;1660641;86;21552;-62
2022/08/03 08:12:33;;;;;;;18.48;15.50;;;;;;;35.56;67.03;99730.30;1660227;86;21236;-58
2022/08/03 08:15:00;;;;;;;15.83;14.38;;;;;;;35.42;67.39;99732.79;1660579;86;21006;-58
2022/08/03 08:17:28;;;;;;;16.37;14.78;;;;;;;35.36;69.79;99731.52;1660420;86;21067;-59
2022/08/03 08:19:55;;;;;;;15.03;13.60;;;;;;;35.67;74.41;99729.11;1660208;86;21116;-58
2022/08/03 08:22:22;;;;;;;15.25;13.75;;;;;;;36.34;68.79;99727.14;1659702;86;21019;-59
2022/08/03 08:24:49;;;;;;;16.52;14.87;;;;;;;37.00;60.82;99734.27;1659849;86;21550;-59
2022/08/03 08:27:16;;;;;;;17.23;15.65;;;;;;;37.38;59.13;99733.63;1660342;86;21051;-58
2022/08/03 08:29:43;;;;;;;16.12;14.68;;;;;;;37.69;54.05;99729.59;1660399;86;21089;-60
2022/08/03 08:32:13;;;;;;;16.80;15.18;;;;;;;38.00;52.56;99728.27;1659682;86;21015;-71
2022/08/03 08:34:42;;;;;;;14.85;13.45;;;;;;;38.41;51.83;99734.85;1659808;84;22250;-59
2022/08/03 08:37:09;;;;;;;13.45;12.25;;;;;;;38.56;49.41;99729.64;1660712;86;22662;-59
2022/08/03 08:39:36;;;;;;;15.03;13.72;;;;;;;38.68;45.80;99728.50;1660438;86;21061;-58
2022/08/03 08:42:03;;;;;;;14.45;13.10;;;;;;;38.78;45.58;99728.34;1660861;86;20979;-59
2022/08/03 08:44:30;;;;;;;13.38;12.07;;;;;;;39.07;44.63;99717.69;1659711;86;20967;-58
2022/08/03 08:46:59;;;;;;;13.43;12.18;;;;;;;38.93;43.52;99722.54;1660332;86;21601;-58
2022/08/03 08:49:27;;;;;;;15.60;14.10;;;;;;;38.68;43.97;99716.24;1635951;86;22341;-59
2022/08/03 08:51:54;;;;;;;16.30;14.70;;;;;;;38.72;43.06;99721.14;1660190;86;21031;-58
2022/08/03 08:54:21;;;;;;;16.15;14.43;;;;;;;38.60;42.79;99720.89;1659460;86;21011;-60
2022/08/03 08:56:51;;;;;;;15.30;13.90;;;;;;;38.02;44.57;99717.76;1660557;86;21152;-58
2022/08/03 08:59:18;;;;;;;15.98;14.40;;;;;;;37.75;46.44;99719.92;1661026;86;21027;-61
2022/08/03 09:01:45;;;;;;;15.30;13.83;;;;;;;37.65;46.79;99715.19;1660581;85;22565;-57
2022/08/03 09:04:12;;;;;;;14.35;12.80;;;;;;;37.66;46.71;99718.91;1635680;86;20967;-61
2022/08/03 09:06:40;;;;;;;14.80;13.35;;;;;;;37.71;47.40;99715.82;1660464;86;21420;-57
2022/08/03 09:09:08;;;;;;;14.45;12.95;;;;;;;37.79;47.92;99713.14;1665599;86;21591;-57
2022/08/03 09:11:35;;;;;;;14.10;12.60;;;;;;;37.95;49.44;99712.28;1667003;86;21606;-57
2022/08/03 09:14:03;;;;;;;14.47;13.08;;;;;;;38.09;47.96;99708.85;1666659;86;21170;-68
2022/08/03 09:16:30;;;;;;;13.28;11.97;;;;;;;38.31;47.78;99709.72;1647090;86;21074;-59
2022/08/03 09:19:02;;;;;;;12.78;11.57;;;;;;;38.39;43.32;99716.19;1666524;86;21455;-59
2022/08/03 09:21:29;;;;;;;13.48;12.28;;;;;;;38.60;42.72;99716.03;1646128;86;21034;-58
2022/08/03 09:23:57;;;;;;;11.50;10.32;;;;;;;38.98;41.67;99709.70;1665975;86;21039;-60
2022/08/03 09:26:29;;;;;;;12.68;11.38;;;;;;;38.95;40.22;99715.36;1665908;86;21737;-62
2022/08/03 09:29:07;;;;;;;10.85;9.88;;;;;;;38.66;39.61;99712.55;1666371;86;21058;-58
2022/08/03 09:31:36;;;;;;;10.72;9.73;;;;;;;38.41;41.24;99711.70;1666643;86;21093;-57
2022/08/03 09:34:09;;;;;;;11.88;9.83;;;;;;;38.00;42.94;99712.48;1666276;86;20939;-68
2022/08/03 09:36:47;;;;;;;11.03;9.88;;;;;;;37.66;44.03;99718.91;1666086;85;21598;-58
2022/08/03 09:39:16;;;;;;;9.68;8.75;;;;;;;37.67;44.51;99718.33;1666994;86;21094;-57
2022/08/03 09:41:48;;;;;;;10.25;9.25;;;;;;;37.78;43.07;99716.45;1666842;86;21006;-67
2022/08/03 09:44:15;;;;;;;9.78;8.88;;;;;;;37.73;43.72;99719.51;1663592;86;21534;-57
2022/08/03 09:46:53;;;;;;;10.20;9.23;;;;;;;37.46;44.04;99714.29;1667380;86;21518;-57
2022/08/03 09:49:20;;;;;;;9.43;8.53;;;;;;;37.30;43.56;99720.55;1666553;86;20983;-68
2022/08/03 09:51:47;;;;;;;10.30;9.33;;;;;;;37.26;46.45;99719.75;1665179;86;21769;-62
2022/08/03 09:54:27;;;;;;;9.40;8.50;;;;;;;37.37;44.96;99715.17;1666939;86;21608;-58
2022/08/03 09:56:54;;;;;;;;;;;;;;;37.52;44.57;99713.38;1669133;86;21069;-57
2022/08/03 09:59:29;;;;;;;10.10;9.20;;;;;;;37.75;42.79;99709.05;1667350;86;20149;-67
2022/08/03 10:01:57;;;;;;;12.47;9.10;;;;;;;37.86;43.37;99712.60;1666524;86;21558;-58
2022/08/03 10:04:25;;;;;;;10.05;9.15;;;;;;;38.08;42.60;99713.52;1667087;86;21166;-57
2022/08/03 10:07:04;;;;;;;9.10;8.25;;;;;;;38.17;41.90;99714.52;1667240;86;21591;-57
2022/08/03 10:09:32;;;;;;;9.05;8.25;;;;;;;38.04;41.39;99707.28;1647107;85;21034;-61
2022/08/03 10:12:11;;;;;;;10.20;8.90;;;;;;;38.11;41.76;99701.88;1644319;87;21903;-57
2022/08/03 10:14:39;;;;;;;9.50;8.63;;;;;;;38.31;40.40;99696.88;1644315;87;21013;-58
2022/08/03 10:17:06;;;;;;;8.98;8.18;;;;;;;38.47;40.97;99700.65;1644221;87;21249;-59
2022/08/03 10:19:33;;;;;;;10.20;9.20;;;;;;;38.58;40.87;99706.13;1643009;87;20950;-58
2022/08/03 10:22:07;;;;;;;9.90;8.95;;;;;;;38.69;41.41;99704.20;1643962;87;21354;-57
2022/08/03 10:24:39;;;;;;;9.98;9.08;;;;;;;38.86;39.37;99696.64;1641939;87;20942;-62
2022/08/03 10:27:06;;;;;;;10.50;9.60;;;;;;;38.60;39.69;99700.47;1642788;87;20989;-62
2022/08/03 10:29:38;;;;;;;9.65;8.43;;;;;;;38.50;40.16;99703.97;1643494;87;21898;-59
2022/08/03 10:32:13;;;;;;;9.83;8.88;;;;;;;38.42;39.59;99696.95;1642648;87;21839;-58
2022/08/03 10:34:41;;;;;;;10.35;9.35;;;;;;;38.56;39.97;99693.46;1643293;87;21057;-67
2022/08/03 10:37:10;;;;;;;9.60;8.70;;;;;;;38.67;38.94;99692.90;1643382;87;21033;-61
2022/08/03 10:39:38;;;;;;;9.15;8.35;;;;;;;38.78;39.17;99680.66;1644001;87;21472;-58
2022/08/03 10:42:07;;;;;;;8.53;7.72;;;;;;;38.83;38.65;99682.45;1643091;87;21287;-58
2022/08/03 10:47:05;;;;;;;8.55;7.62;;;;;;;38.85;37.50;99684.20;1837814;77;23129;-66
2022/08/03 10:49:32;;;;;;;8.50;7.60;;;;;;;38.70;38.24;99688.05;1813011;79;21477;-57
2022/08/03 10:51:59;;;;;;;7.70;6.97;;;;;;;38.78;39.70;99681.44;1813252;79;22490;-57
2022/08/03 10:57:46;;;;;;;8.53;7.72;;;;;;;38.86;36.87;99680.30;1813195;79;21456;-58
2022/08/03 11:00:19;;;;;;;8.28;7.22;;;;;;;39.01;36.12;99673.49;1812906;79;21548;-59
2022/08/03 11:03:15;;;;;;;9.15;7.33;;;;;;;39.00;37.88;99676.03;1811885;79;20912;-65
2022/08/03 11:05:44;;;;;;;7.47;6.78;;;;;;;39.18;36.24;99680.30;1812210;79;22461;-59
2022/08/03 11:08:28;;;;;;;9.15;8.25;;;;;;;39.10;36.02;99680.70;1812920;79;20971;-58
2022/08/03 11:11:02;;;;;;;7.80;6.22;;;;;;;39.08;35.71;99676.22;1813236;78;20956;-59
2022/08/03 11:13:32;;;;;;;7.75;6.97;;;;;;;39.13;35.42;99677.18;1808273;79;21382;-58
2022/08/03 11:16:01;;;;;;;5.85;5.30;;;;;;;39.30;36.41;99675.06;1813452;79;21074;-64
2022/08/03 11:18:28;;;;;;;5.17;4.67;;;;;;;39.44;33.97;99669.38;1812920;79;21848;-57
2022/08/03 11:20:58;;;;;;;5.90;5.30;;;;;;;39.43;32.78;99673.28;1813188;79;21062;-67
2022/08/03 11:23:47;;;;;;;5.55;5.05;;;;;;;39.44;33.41;99667.45;1813078;79;20987;-59
2022/08/03 11:26:17;;;;;;;6.90;6.30;;;;;;;39.41;33.86;99670.96;1813125;79;21039;-58
2022/08/03 11:28:45;;;;;;;6.72;6.12;;;;;;;39.05;35.47;99677.77;1813238;78;21035;-68
2022/08/03 11:31:28;;;;;;;7.00;6.30;;;;;;;38.81;36.08;99674.47;1812911;79;21338;-58
2022/08/03 11:34:08;;;;;;;6.42;5.83;;;;;;;38.49;37.18;99684.69;1812750;78;21007;-58
2022/08/03 11:37:18;;;;;;;6.03;5.47;;;;;;;38.02;36.32;99681.61;1809438;79;20966;-67
2022/08/03 11:39:47;;;;;;;;;;;;;;;37.66;37.59;99688.99;1815461;78;21023;-60
2022/08/03 11:42:28;;;;;;;6.83;6.22;;;;;;;37.33;38.12;99686.41;1812593;79;20158;-59
2022/08/03 11:44:57;;;;;;;5.28;4.78;;;;;;;37.12;38.32;99687.02;1812890;79;21099;-59
2022/08/03 11:47:27;;;;;;;5.53;5.03;;;;;;;36.93;37.70;99692.07;1813495;79;21039;-59
2022/08/03 11:49:57;;;;;;;5.62;4.47;;;;;;;36.77;37.52;99683.59;1812873;79;21441;-66